createdAt,value
2022-10-06T00:00:08.449Z,0
2022-10-06T00:01:08.604Z,0
2022-10-06T00:02:08.903Z,0
2022-10-06T00:03:09.199Z,0
2022-10-06T00:04:09.952Z,0
2022-10-06T00:05:10.172Z,0
2022-10-06T00:06:10.327Z,0
2022-10-06T00:07:10.461Z,0
2022-10-06T00:08:10.591Z,0
2022-10-06T00:09:10.714Z,0
2022-10-06T00:10:10.842Z,0
2022-10-06T00:11:10.972Z,0
2022-10-06T00:12:11.154Z,0
2022-10-06T00:13:11.275Z,0
2022-10-06T00:14:11.477Z,0
2022-10-06T00:15:11.607Z,0
2022-10-06T00:16:11.779Z,0
2022-10-06T00:17:12.144Z,0
2022-10-06T00:18:12.275Z,0
2022-10-06T00:19:12.408Z,0
2022-10-06T00:20:12.533Z,0
2022-10-06T00:21:12.658Z,0
2022-10-06T00:22:12.784Z,0
2022-10-06T00:23:12.913Z,0
2022-10-06T00:24:13.040Z,0
2022-10-06T00:25:13.175Z,0
2022-10-06T00:26:13.304Z,0
2022-10-06T00:27:13.435Z,0
2022-10-06T00:28:13.575Z,0
2022-10-06T00:29:13.858Z,0
2022-10-06T00:30:13.981Z,0
2022-10-06T00:31:14.174Z,0
2022-10-06T00:32:14.456Z,0
2022-10-06T00:33:14.587Z,0
2022-10-06T00:34:14.715Z,0
2022-10-06T00:35:14.843Z,0
2022-10-06T00:36:14.969Z,0
2022-10-06T00:37:15.094Z,0
2022-10-06T00:38:15.222Z,0
2022-10-06T00:39:15.348Z,0
2022-10-06T00:40:15.472Z,0
2022-10-06T00:41:15.599Z,0
2022-10-06T00:42:15.733Z,0
2022-10-06T00:43:15.877Z,0
2022-10-06T00:44:16.008Z,0
2022-10-06T00:45:16.139Z,0
2022-10-06T00:46:16.361Z,0
2022-10-06T00:47:16.691Z,0
2022-10-06T00:48:16.819Z,0
2022-10-06T00:49:16.949Z,0
2022-10-06T00:50:17.079Z,0
2022-10-06T00:51:17.209Z,0
2022-10-06T00:52:17.338Z,0
2022-10-06T00:53:17.469Z,0
2022-10-06T00:54:17.601Z,0
2022-10-06T00:55:17.735Z,0
2022-10-06T00:56:17.863Z,0
2022-10-06T00:57:17.986Z,0
2022-10-06T00:58:18.114Z,0
2022-10-06T00:59:18.276Z,0
2022-10-06T01:00:18.400Z,0
2022-10-06T01:01:18.617Z,0
2022-10-06T01:02:19.061Z,0
2022-10-06T01:03:19.399Z,0
2022-10-06T01:04:19.526Z,0
2022-10-06T01:05:19.652Z,0
2022-10-06T01:06:19.780Z,0
2022-10-06T01:07:19.902Z,0
2022-10-06T01:08:20.030Z,0
2022-10-06T01:09:20.159Z,0
2022-10-06T01:10:20.286Z,0
2022-10-06T01:11:20.411Z,0
2022-10-06T01:12:20.543Z,0
2022-10-06T01:13:20.669Z,0
2022-10-06T01:14:20.796Z,0
2022-10-06T01:15:20.923Z,0
2022-10-06T01:16:21.119Z,0
2022-10-06T01:17:21.497Z,0
2022-10-06T01:18:21.625Z,0
2022-10-06T01:19:21.749Z,0
2022-10-06T01:20:21.873Z,0
2022-10-06T01:21:21.995Z,0
2022-10-06T01:22:22.141Z,0
2022-10-06T01:23:22.274Z,0
2022-10-06T01:24:22.423Z,0
2022-10-06T01:25:22.597Z,0
2022-10-06T01:26:22.729Z,0
2022-10-06T01:27:22.851Z,0
2022-10-06T01:28:22.999Z,0
2022-10-06T01:29:23.347Z,0
2022-10-06T01:30:23.471Z,0
2022-10-06T01:31:23.668Z,0
2022-10-06T01:32:24.034Z,0
2022-10-06T01:33:24.172Z,0
2022-10-06T01:34:24.308Z,0
2022-10-06T01:35:24.470Z,0
2022-10-06T01:36:24.597Z,0
2022-10-06T01:37:24.736Z,0
2022-10-06T01:38:24.864Z,0
2022-10-06T01:39:24.995Z,0
2022-10-06T01:40:25.120Z,0
2022-10-06T01:41:25.257Z,0
2022-10-06T01:42:25.390Z,0
2022-10-06T01:43:25.529Z,0
2022-10-06T01:44:25.671Z,0
2022-10-06T01:45:25.801Z,0
2022-10-06T01:46:26.021Z,0
2022-10-06T01:47:26.333Z,0
2022-10-06T01:48:27.067Z,0
2022-10-06T01:49:28.730Z,0
2022-10-06T01:50:28.858Z,0
2022-10-06T01:51:28.983Z,0
2022-10-06T01:52:29.095Z,0
2022-10-06T01:53:29.218Z,0
2022-10-06T01:54:29.340Z,0
2022-10-06T01:55:29.465Z,0
2022-10-06T01:56:29.600Z,0
2022-10-06T01:57:29.730Z,0
2022-10-06T01:58:30.169Z,0
2022-10-06T01:59:31.728Z,0
2022-10-06T02:00:31.861Z,0
2022-10-06T02:01:32.062Z,0
2022-10-06T02:02:32.491Z,0
2022-10-06T02:03:32.619Z,0
2022-10-06T02:04:32.746Z,0
2022-10-06T02:05:32.873Z,0
2022-10-06T02:06:33.112Z,0
2022-10-06T02:07:33.414Z,0
2022-10-06T02:08:33.536Z,0
2022-10-06T02:09:33.664Z,0
2022-10-06T02:10:33.813Z,0
2022-10-06T02:11:33.943Z,0
2022-10-06T02:12:34.072Z,0
2022-10-06T02:13:34.195Z,0
2022-10-06T02:14:34.330Z,0
2022-10-06T02:15:34.573Z,0
2022-10-06T02:16:34.953Z,0
2022-10-06T02:17:35.077Z,0
2022-10-06T02:18:35.208Z,0
2022-10-06T02:19:35.329Z,0
2022-10-06T02:20:35.457Z,0
2022-10-06T02:21:35.589Z,0
2022-10-06T02:22:35.718Z,0
2022-10-06T02:23:35.850Z,0
2022-10-06T02:24:35.974Z,0
2022-10-06T02:25:36.101Z,0
2022-10-06T02:26:36.230Z,0
2022-10-06T02:27:36.356Z,0
2022-10-06T02:28:36.490Z,0
2022-10-06T02:29:36.768Z,0
2022-10-06T02:30:36.901Z,0
2022-10-06T02:31:37.103Z,0
2022-10-06T02:32:37.431Z,0
2022-10-06T02:33:37.558Z,0
2022-10-06T02:34:37.685Z,0
2022-10-06T02:35:37.801Z,0
2022-10-06T02:36:37.925Z,0
2022-10-06T02:37:38.055Z,0
2022-10-06T02:38:38.188Z,0
2022-10-06T02:39:38.322Z,0
2022-10-06T02:40:38.449Z,0
2022-10-06T02:41:38.572Z,0
2022-10-06T02:42:38.706Z,0
2022-10-06T02:43:38.835Z,0
2022-10-06T02:44:38.964Z,0
2022-10-06T02:45:39.092Z,0
2022-10-06T02:46:39.290Z,0
2022-10-06T02:47:39.522Z,0
2022-10-06T02:48:39.660Z,0
2022-10-06T02:49:39.792Z,0
2022-10-06T02:50:39.918Z,0
2022-10-06T02:51:40.043Z,0
2022-10-06T02:52:40.166Z,0
2022-10-06T02:53:40.287Z,0
2022-10-06T02:54:40.416Z,0
2022-10-06T02:55:40.535Z,0
2022-10-06T02:56:40.653Z,0
2022-10-06T02:57:40.782Z,0
2022-10-06T02:58:40.912Z,0
2022-10-06T02:59:41.049Z,0
2022-10-06T03:00:41.175Z,0
2022-10-06T03:01:41.439Z,0
2022-10-06T03:02:42.040Z,0
2022-10-06T03:03:42.678Z,0
2022-10-06T03:04:42.808Z,0
2022-10-06T03:05:42.938Z,0
2022-10-06T03:06:43.064Z,0
2022-10-06T03:07:43.190Z,0
2022-10-06T03:08:43.317Z,0
2022-10-06T03:09:43.448Z,0
2022-10-06T03:10:43.572Z,0
2022-10-06T03:11:43.698Z,0
2022-10-06T03:12:43.848Z,0
2022-10-06T03:13:43.975Z,0
2022-10-06T03:14:44.102Z,0
2022-10-06T03:15:44.283Z,0
2022-10-06T03:16:44.598Z,0
2022-10-06T03:17:44.723Z,0
2022-10-06T03:18:44.857Z,0
2022-10-06T03:19:44.986Z,0
2022-10-06T03:20:45.111Z,0
2022-10-06T03:21:45.243Z,0
2022-10-06T03:22:45.479Z,0
2022-10-06T03:23:45.629Z,0
2022-10-06T03:24:45.776Z,0
2022-10-06T03:25:45.902Z,0
2022-10-06T03:26:46.030Z,0
2022-10-06T03:27:46.152Z,0
2022-10-06T03:28:46.332Z,0
2022-10-06T03:29:46.709Z,0
2022-10-06T03:30:46.830Z,0
2022-10-06T03:31:47.048Z,0
2022-10-06T03:32:47.361Z,0
2022-10-06T03:33:47.494Z,0
2022-10-06T03:34:47.619Z,0
2022-10-06T03:35:48.012Z,0
2022-10-06T03:36:48.151Z,0
2022-10-06T03:37:48.283Z,0
2022-10-06T03:38:48.418Z,0
2022-10-06T03:39:48.539Z,0
2022-10-06T03:40:48.671Z,0
2022-10-06T03:41:48.798Z,0
2022-10-06T03:42:48.935Z,0
2022-10-06T03:43:49.067Z,0
2022-10-06T03:44:49.190Z,0
2022-10-06T03:45:49.325Z,0
2022-10-06T03:46:49.609Z,0
2022-10-06T03:47:49.956Z,0
2022-10-06T03:48:50.082Z,0
2022-10-06T03:49:50.220Z,0
2022-10-06T03:50:50.346Z,0
2022-10-06T03:51:50.474Z,0
2022-10-06T03:52:50.596Z,0
2022-10-06T03:53:50.723Z,0
2022-10-06T03:54:50.845Z,0
2022-10-06T03:55:50.975Z,0
2022-10-06T03:56:51.100Z,0
2022-10-06T03:57:51.333Z,0
2022-10-06T03:58:51.456Z,0
2022-10-06T03:59:51.582Z,0
2022-10-06T04:00:51.755Z,0
2022-10-06T04:01:52.074Z,0
2022-10-06T04:02:52.352Z,0
2022-10-06T04:03:52.477Z,0
2022-10-06T04:04:52.609Z,0
2022-10-06T04:05:52.735Z,0
2022-10-06T04:06:52.864Z,0
2022-10-06T04:07:52.992Z,0
2022-10-06T04:08:53.122Z,0
2022-10-06T04:09:53.249Z,0
2022-10-06T04:10:53.372Z,0
2022-10-06T04:11:53.509Z,0
2022-10-06T04:12:53.644Z,0
2022-10-06T04:13:53.770Z,0
2022-10-06T04:14:57.848Z,0
2022-10-06T04:16:00.601Z,0
2022-10-06T04:17:00.817Z,0
2022-10-06T04:18:00.947Z,0
2022-10-06T04:19:01.084Z,0
2022-10-06T04:20:01.209Z,0
2022-10-06T04:21:01.335Z,0
2022-10-06T04:22:01.471Z,0
2022-10-06T04:23:01.599Z,0
2022-10-06T04:24:01.728Z,0
2022-10-06T04:25:01.851Z,0
2022-10-06T04:26:01.968Z,0
2022-10-06T04:27:02.097Z,0
2022-10-06T04:28:02.331Z,0
2022-10-06T04:29:02.628Z,0
2022-10-06T04:30:02.772Z,0
2022-10-06T04:31:02.904Z,0
2022-10-06T04:32:03.099Z,0
2022-10-06T04:33:03.406Z,0
2022-10-06T04:34:03.536Z,0
2022-10-06T04:35:03.669Z,0
2022-10-06T04:36:03.798Z,0
2022-10-06T04:37:03.923Z,0
2022-10-06T04:38:04.076Z,0
2022-10-06T04:39:04.206Z,0
2022-10-06T04:40:04.334Z,0
2022-10-06T04:41:04.457Z,0
2022-10-06T04:42:04.581Z,0
2022-10-06T04:43:04.708Z,0
2022-10-06T04:44:04.838Z,0
2022-10-06T04:45:04.963Z,0
2022-10-06T04:46:18.336Z,0
2022-10-06T04:47:45.032Z,0
2022-10-06T04:48:45.160Z,0
2022-10-06T04:49:45.290Z,0
2022-10-06T04:50:45.414Z,0
2022-10-06T04:51:45.542Z,0
2022-10-06T04:52:45.663Z,0
2022-10-06T04:53:45.886Z,0
2022-10-06T04:54:46.012Z,0
2022-10-06T04:55:46.136Z,0
2022-10-06T04:56:46.259Z,0
2022-10-06T04:57:46.409Z,0
2022-10-06T04:58:46.550Z,0
2022-10-06T04:59:46.680Z,0
2022-10-06T05:00:46.840Z,0
2022-10-06T05:01:47.220Z,0
2022-10-06T05:02:47.575Z,0
2022-10-06T05:03:47.714Z,0
2022-10-06T05:04:47.835Z,0
2022-10-06T05:05:47.954Z,0
2022-10-06T05:06:48.083Z,0
2022-10-06T05:07:48.212Z,0
2022-10-06T05:08:48.338Z,0
2022-10-06T05:09:48.465Z,1
2022-10-06T05:10:48.589Z,2
2022-10-06T05:11:48.717Z,3
2022-10-06T05:12:48.862Z,4
2022-10-06T05:13:48.995Z,6
2022-10-06T05:14:49.137Z,7
2022-10-06T05:15:49.289Z,9
2022-10-06T05:16:49.511Z,11
2022-10-06T05:17:50.033Z,13
2022-10-06T05:18:50.168Z,15
2022-10-06T05:19:50.294Z,19
2022-10-06T05:20:50.418Z,21
2022-10-06T05:21:50.543Z,24
2022-10-06T05:22:50.669Z,27
2022-10-06T05:23:50.792Z,33
2022-10-06T05:24:50.914Z,37
2022-10-06T05:25:51.047Z,46
2022-10-06T05:26:51.180Z,51
2022-10-06T05:27:51.321Z,57
2022-10-06T05:28:51.515Z,70
2022-10-06T05:29:51.876Z,78
2022-10-06T05:30:52.007Z,86
2022-10-06T05:31:52.215Z,96.96
2022-10-06T05:32:52.506Z,110
2022-10-06T05:33:52.633Z,130
2022-10-06T05:34:52.766Z,150
2022-10-06T05:35:52.892Z,169.92
2022-10-06T05:36:53.019Z,189.92
2022-10-06T05:37:53.149Z,209.92
2022-10-06T05:38:53.286Z,209.92
2022-10-06T05:39:53.419Z,240
2022-10-06T05:40:53.548Z,269.92
2022-10-06T05:41:53.676Z,300
2022-10-06T05:42:53.802Z,300
2022-10-06T05:43:53.952Z,329.92
2022-10-06T05:44:54.076Z,369.92
2022-10-06T05:45:54.274Z,409.92
2022-10-06T05:46:54.594Z,409.92
2022-10-06T05:47:54.727Z,409.92
2022-10-06T05:48:54.856Z,459.84
2022-10-06T05:49:55.001Z,509.76
2022-10-06T05:50:55.127Z,509.76
2022-10-06T05:51:55.253Z,569.92
2022-10-06T05:52:55.376Z,629.76
2022-10-06T05:53:55.500Z,629.76
2022-10-06T05:54:55.625Z,699.52
2022-10-06T05:55:55.744Z,699.52
2022-10-06T05:56:55.876Z,769.92
2022-10-06T05:57:56.083Z,769.92
2022-10-06T05:58:56.212Z,769.92
2022-10-06T05:59:56.338Z,769.92
2022-10-06T06:00:56.465Z,769.92
2022-10-06T06:01:56.710Z,769.92
2022-10-06T06:02:57.220Z,849.92
2022-10-06T06:03:57.512Z,849.92
2022-10-06T06:04:57.643Z,949.76
2022-10-06T06:05:57.768Z,949.76
2022-10-06T06:06:57.890Z,949.76
2022-10-06T06:07:58.016Z,949.76
2022-10-06T06:08:58.145Z,949.76
2022-10-06T06:09:58.275Z,1059.84
2022-10-06T06:10:58.402Z,1059.84
2022-10-06T06:11:58.532Z,1059.84
2022-10-06T06:12:58.659Z,1059.84
2022-10-06T06:13:58.802Z,1059.84
2022-10-06T06:14:58.944Z,1059.84
2022-10-06T06:15:59.074Z,1059.84
2022-10-06T06:16:59.295Z,1059.84
2022-10-06T06:17:59.636Z,1059.84
2022-10-06T06:18:59.761Z,1059.84
2022-10-06T06:19:59.891Z,1040
2022-10-06T06:21:00.022Z,1040
2022-10-06T06:22:00.168Z,1159.68
2022-10-06T06:23:00.291Z,1280
2022-10-06T06:24:00.416Z,1419.52
2022-10-06T06:25:00.538Z,1419.52
2022-10-06T06:26:02.368Z,1579.52
2022-10-06T06:27:03.073Z,1579.52
2022-10-06T06:28:03.259Z,1739.52
2022-10-06T06:29:03.545Z,1739.52
2022-10-06T06:30:03.668Z,1739.52
2022-10-06T06:31:03.851Z,1739.52
2022-10-06T06:32:04.182Z,1739.52
2022-10-06T06:33:04.306Z,1739.52
2022-10-06T06:34:04.432Z,1739.52
2022-10-06T06:35:04.568Z,1739.52
2022-10-06T06:36:04.689Z,1939.2
2022-10-06T06:37:07.625Z,1939.2
2022-10-06T06:38:15.451Z,2099.2
2022-10-06T06:39:15.577Z,2138.88
2022-10-06T06:40:15.702Z,2138.88
2022-10-06T06:41:15.834Z,2138.88
2022-10-06T06:42:15.961Z,2138.88
2022-10-06T06:43:16.084Z,2138.88
2022-10-06T06:44:16.218Z,2138.88
2022-10-06T06:45:16.352Z,2359.04
2022-10-06T06:46:16.617Z,2359.04
2022-10-06T06:47:17.219Z,2359.04
2022-10-06T06:48:17.348Z,2359.04
2022-10-06T06:49:17.481Z,2359.04
2022-10-06T06:50:17.609Z,2359.04
2022-10-06T06:51:17.734Z,2359.04
2022-10-06T06:52:17.859Z,2599.68
2022-10-06T06:53:17.991Z,2599.68
2022-10-06T06:54:18.122Z,2599.68
2022-10-06T06:55:18.275Z,2599.68
2022-10-06T06:56:18.403Z,2599.68
2022-10-06T06:57:18.529Z,2599.68
2022-10-06T06:58:18.652Z,2599.68
2022-10-06T06:59:18.774Z,2859.52
2022-10-06T07:00:18.901Z,2859.52
2022-10-06T07:01:19.090Z,2859.52
2022-10-06T07:02:19.488Z,2859.52
2022-10-06T07:03:32.895Z,2859.52
2022-10-06T07:04:58.458Z,3159.04
2022-10-06T07:05:58.583Z,3159.04
2022-10-06T07:06:58.786Z,3159.04
2022-10-06T07:07:58.951Z,3159.04
2022-10-06T07:08:59.111Z,3159.04
2022-10-06T07:09:59.246Z,3479.04
2022-10-06T07:10:59.378Z,3479.04
2022-10-06T07:11:59.520Z,3479.04
2022-10-06T07:12:59.650Z,3479.04
2022-10-06T07:13:59.780Z,3840
2022-10-06T07:14:59.910Z,3840
2022-10-06T07:16:00.259Z,3840
2022-10-06T07:17:00.472Z,3840
2022-10-06T07:18:00.609Z,4259.84
2022-10-06T07:19:00.732Z,4718.08
2022-10-06T07:20:00.862Z,4718.08
2022-10-06T07:21:00.991Z,4718.08
2022-10-06T07:22:01.118Z,4718.08
2022-10-06T07:23:01.243Z,4718.08
2022-10-06T07:24:01.369Z,5219.84
2022-10-06T07:25:01.490Z,5219.84
2022-10-06T07:26:01.623Z,5219.84
2022-10-06T07:27:01.747Z,5219.84
2022-10-06T07:28:01.898Z,5760
2022-10-06T07:29:02.235Z,5760
2022-10-06T07:30:02.360Z,6338.56
2022-10-06T07:31:02.517Z,6338.56
2022-10-06T07:32:02.793Z,6338.56
2022-10-06T07:33:02.923Z,6338.56
2022-10-06T07:34:03.051Z,7040
2022-10-06T07:35:03.196Z,7040
2022-10-06T07:36:03.328Z,7040
2022-10-06T07:37:05.682Z,7040
2022-10-06T07:38:06.821Z,6215.68
2022-10-06T07:39:06.950Z,6215.68
2022-10-06T07:40:07.073Z,5555.2
2022-10-06T07:41:18.716Z,5555.2
2022-10-06T07:42:20.881Z,5437.44
2022-10-06T07:43:21.012Z,5437.44
2022-10-06T07:44:21.136Z,5437.44
2022-10-06T07:45:21.259Z,5437.44
2022-10-06T07:46:21.419Z,5437.44
2022-10-06T07:47:21.692Z,5437.44
2022-10-06T07:48:21.830Z,5437.44
2022-10-06T07:49:21.962Z,5437.44
2022-10-06T07:50:22.092Z,6036.48
2022-10-06T07:51:22.221Z,6036.48
2022-10-06T07:52:22.350Z,6656
2022-10-06T07:53:22.502Z,6656
2022-10-06T07:54:26.604Z,6656
2022-10-06T07:55:27.725Z,7357.44
2022-10-06T07:56:27.849Z,7357.44
2022-10-06T07:57:27.976Z,7357.44
2022-10-06T07:58:28.103Z,7357.44
2022-10-06T07:59:28.234Z,7357.44
2022-10-06T08:00:28.485Z,7357.44
2022-10-06T08:01:28.884Z,7357.44
2022-10-06T08:02:30.222Z,7357.44
2022-10-06T08:03:36.455Z,8135.68
2022-10-06T08:04:36.576Z,8995.84
2022-10-06T08:05:36.704Z,8995.84
2022-10-06T08:06:36.828Z,8995.84
2022-10-06T08:07:36.954Z,9958.4
2022-10-06T08:08:37.094Z,9958.4
2022-10-06T08:09:37.220Z,10997.76
2022-10-06T08:10:37.352Z,10997.76
2022-10-06T08:11:37.488Z,10997.76
2022-10-06T08:12:37.872Z,12195.84
2022-10-06T08:13:38.319Z,14991.36
2022-10-06T08:14:38.454Z,16599.04
2022-10-06T08:15:38.660Z,18790.4
2022-10-06T08:16:39.009Z,18790.4
2022-10-06T08:17:39.153Z,18790.4
2022-10-06T08:18:46.307Z,18790.4
2022-10-06T08:19:47.603Z,14397.44
2022-10-06T08:20:47.733Z,15994.88
2022-10-06T08:21:47.859Z,17592.32
2022-10-06T08:22:47.991Z,17592.32
2022-10-06T08:23:48.136Z,15790.08
2022-10-06T08:25:05.072Z,14192.64
2022-10-06T08:26:07.702Z,16998.4
2022-10-06T08:27:07.829Z,17592.32
2022-10-06T08:28:08.061Z,15390.72
2022-10-06T08:29:08.341Z,13793.28
2022-10-06T08:30:08.470Z,12195.84
2022-10-06T08:31:08.696Z,12195.84
2022-10-06T08:32:09.020Z,15994.88
2022-10-06T08:33:09.164Z,19793.92
2022-10-06T08:34:11.895Z,21790.72
2022-10-06T08:35:12.526Z,21790.72
2022-10-06T08:36:12.649Z,16793.6
2022-10-06T08:37:20.062Z,14592
2022-10-06T08:38:20.906Z,15595.52
2022-10-06T08:39:21.028Z,15595.52
2022-10-06T08:40:21.201Z,16199.68
2022-10-06T08:41:21.335Z,20592.64
2022-10-06T08:42:21.466Z,22794.24
2022-10-06T08:43:21.590Z,22794.24
2022-10-06T08:44:21.715Z,22794.24
2022-10-06T08:45:21.842Z,22794.24
2022-10-06T08:46:23.955Z,22794.24
2022-10-06T08:47:25.133Z,22794.24
2022-10-06T08:48:25.263Z,25190.4
2022-10-06T08:49:25.394Z,25190.4
2022-10-06T08:50:25.529Z,25190.4
2022-10-06T08:51:25.662Z,25190.4
2022-10-06T08:52:25.791Z,25190.4
2022-10-06T08:53:25.917Z,25190.4
2022-10-06T08:54:26.041Z,25190.4
2022-10-06T08:55:26.163Z,25190.4
2022-10-06T08:56:26.291Z,25190.4
2022-10-06T08:57:26.425Z,25190.4
2022-10-06T08:58:26.551Z,26992.64
2022-10-06T08:59:26.676Z,26992.64
2022-10-06T09:00:26.812Z,26992.64
2022-10-06T09:01:26.990Z,26992.64
2022-10-06T09:02:27.398Z,26992.64
2022-10-06T09:03:27.691Z,26992.64
2022-10-06T09:04:27.816Z,26992.64
2022-10-06T09:05:27.939Z,26992.64
2022-10-06T09:06:28.067Z,26992.64
2022-10-06T09:07:28.200Z,26992.64
2022-10-06T09:08:28.330Z,29184
2022-10-06T09:09:28.455Z,29184
2022-10-06T09:10:28.583Z,29184
2022-10-06T09:11:28.714Z,29184
2022-10-06T09:12:28.842Z,29184
2022-10-06T09:13:28.970Z,29184
2022-10-06T09:14:29.100Z,29184
2022-10-06T09:15:29.231Z,29184
2022-10-06T09:16:29.408Z,29184
2022-10-06T09:17:29.804Z,29184
2022-10-06T09:18:49.250Z,31191.04
2022-10-06T09:20:09.689Z,31395.84
2022-10-06T09:21:09.818Z,31395.84
2022-10-06T09:22:09.967Z,31395.84
2022-10-06T09:23:10.104Z,31395.84
2022-10-06T09:24:10.224Z,31395.84
2022-10-06T09:25:10.356Z,31395.84
2022-10-06T09:26:10.488Z,31395.84
2022-10-06T09:27:10.660Z,31395.84
2022-10-06T09:28:11.003Z,32194.56
2022-10-06T09:29:11.282Z,32194.56
2022-10-06T09:30:11.414Z,32194.56
2022-10-06T09:31:11.594Z,32194.56
2022-10-06T09:32:11.867Z,32194.56
2022-10-06T09:33:12.000Z,32194.56
2022-10-06T09:34:12.123Z,32194.56
2022-10-06T09:35:12.252Z,32194.56
2022-10-06T09:36:12.383Z,32194.56
2022-10-06T09:37:12.510Z,32194.56
2022-10-06T09:38:12.638Z,33382.4
2022-10-06T09:39:12.770Z,33382.4
2022-10-06T09:40:12.891Z,33382.4
2022-10-06T09:41:13.016Z,33382.4
2022-10-06T09:42:13.142Z,33382.4
2022-10-06T09:43:13.259Z,33382.4
2022-10-06T09:44:13.384Z,33382.4
2022-10-06T09:45:13.517Z,33382.4
2022-10-06T09:46:13.648Z,33382.4
2022-10-06T09:47:13.785Z,33382.4
2022-10-06T09:48:13.912Z,34590.72
2022-10-06T09:49:14.034Z,34590.72
2022-10-06T09:50:14.165Z,34590.72
2022-10-06T09:51:14.319Z,34590.72
2022-10-06T09:52:14.474Z,34590.72
2022-10-06T09:53:14.598Z,34590.72
2022-10-06T09:54:14.739Z,34590.72
2022-10-06T09:55:14.949Z,34590.72
2022-10-06T09:56:15.076Z,34590.72
2022-10-06T09:57:15.226Z,34590.72
2022-10-06T09:58:15.427Z,33996.8
2022-10-06T09:59:15.557Z,33996.8
2022-10-06T10:00:15.684Z,33996.8
2022-10-06T10:01:15.896Z,33996.8
2022-10-06T10:02:16.239Z,33996.8
2022-10-06T10:03:16.398Z,33996.8
2022-10-06T10:04:21.220Z,33996.8
2022-10-06T10:05:22.282Z,33996.8
2022-10-06T10:06:22.465Z,33996.8
2022-10-06T10:07:22.819Z,33996.8
2022-10-06T10:08:23.019Z,34795.52
2022-10-06T10:09:23.428Z,34795.52
2022-10-06T10:10:23.580Z,34795.52
2022-10-06T10:11:23.719Z,34795.52
2022-10-06T10:12:23.851Z,34795.52
2022-10-06T10:13:23.986Z,34795.52
2022-10-06T10:14:24.111Z,34795.52
2022-10-06T10:15:24.243Z,34795.52
2022-10-06T10:16:24.431Z,34795.52
2022-10-06T10:17:24.749Z,34795.52
2022-10-06T10:18:24.872Z,34385.92
2022-10-06T10:19:24.996Z,34385.92
2022-10-06T10:20:25.126Z,34385.92
2022-10-06T10:21:25.299Z,34385.92
2022-10-06T10:22:25.664Z,34385.92
2022-10-06T10:23:30.255Z,34385.92
2022-10-06T10:24:32.384Z,33996.8
2022-10-06T10:25:32.507Z,33996.8
2022-10-06T10:26:32.634Z,33996.8
2022-10-06T10:27:32.764Z,30781.44
2022-10-06T10:28:32.981Z,27586.56
2022-10-06T10:29:33.481Z,24780.8
2022-10-06T10:30:33.646Z,27381.76
2022-10-06T10:31:33.823Z,30187.52
2022-10-06T10:32:34.145Z,33382.4
2022-10-06T10:33:34.274Z,33382.4
2022-10-06T10:34:34.406Z,33382.4
2022-10-06T10:35:34.530Z,33382.4
2022-10-06T10:36:34.658Z,36782.08
2022-10-06T10:37:34.808Z,36782.08
2022-10-06T10:38:34.931Z,36782.08
2022-10-06T10:39:35.059Z,36782.08
2022-10-06T10:40:35.183Z,36782.08
2022-10-06T10:41:35.318Z,36782.08
2022-10-06T10:42:35.452Z,36782.08
2022-10-06T10:43:35.572Z,36782.08
2022-10-06T10:44:35.695Z,40591.36
2022-10-06T10:45:35.829Z,40591.36
2022-10-06T10:46:36.010Z,40591.36
2022-10-06T10:47:36.304Z,40591.36
2022-10-06T10:48:36.428Z,40591.36
2022-10-06T10:49:36.553Z,44974.08
2022-10-06T10:50:36.689Z,44974.08
2022-10-06T10:51:36.811Z,57999.36
2022-10-06T10:52:36.940Z,72376.32
2022-10-06T10:53:38.866Z,72376.32
2022-10-06T10:54:43.019Z,68198.4
2022-10-06T10:55:43.142Z,68198.4
2022-10-06T10:56:43.272Z,68198.4
2022-10-06T10:57:43.417Z,64593.92
2022-10-06T10:58:43.547Z,64593.92
2022-10-06T10:59:43.667Z,64593.92
2022-10-06T11:00:43.831Z,64593.92
2022-10-06T11:01:44.196Z,64593.92
2022-10-06T11:02:44.403Z,64593.92
2022-10-06T11:03:44.525Z,64593.92
2022-10-06T11:04:44.650Z,64593.92
2022-10-06T11:05:44.777Z,64593.92
2022-10-06T11:06:44.904Z,64593.92
2022-10-06T11:07:45.029Z,69386.24
2022-10-06T11:08:45.403Z,69386.24
2022-10-06T11:09:45.535Z,69386.24
2022-10-06T11:10:45.660Z,69386.24
2022-10-06T11:11:49.931Z,69386.24
2022-10-06T11:12:52.637Z,72376.32
2022-10-06T11:13:52.764Z,72376.32
2022-10-06T11:14:52.891Z,72376.32
2022-10-06T11:15:53.085Z,72376.32
2022-10-06T11:16:53.471Z,72376.32
2022-10-06T11:17:53.607Z,71598.08
2022-10-06T11:18:53.737Z,71598.08
2022-10-06T11:19:53.864Z,71598.08
2022-10-06T11:20:53.988Z,71598.08
2022-10-06T11:21:54.116Z,71598.08
2022-10-06T11:22:54.254Z,71598.08
2022-10-06T11:23:54.379Z,71598.08
2022-10-06T11:24:54.534Z,71598.08
2022-10-06T11:25:54.772Z,71598.08
2022-10-06T11:26:54.902Z,71598.08
2022-10-06T11:27:55.030Z,75161.6
2022-10-06T11:28:55.158Z,75161.6
2022-10-06T11:29:55.579Z,75161.6
2022-10-06T11:30:56.569Z,75161.6
2022-10-06T11:31:56.763Z,75161.6
2022-10-06T11:32:57.185Z,75161.6
2022-10-06T11:33:57.312Z,75161.6
2022-10-06T11:34:57.435Z,75161.6
2022-10-06T11:35:57.563Z,75161.6
2022-10-06T11:36:57.692Z,75161.6
2022-10-06T11:37:57.883Z,76800
2022-10-06T11:38:58.185Z,76800
2022-10-06T11:39:58.577Z,76800
2022-10-06T11:40:59.791Z,76800
2022-10-06T11:41:59.923Z,76800
2022-10-06T11:43:00.043Z,76800
2022-10-06T11:44:00.176Z,76800
2022-10-06T11:45:00.644Z,76800
2022-10-06T11:46:02.361Z,76800
2022-10-06T11:47:02.641Z,76800
2022-10-06T11:48:02.768Z,79585.28
2022-10-06T11:49:02.894Z,79585.28
2022-10-06T11:50:03.020Z,79585.28
2022-10-06T11:51:03.146Z,79585.28
2022-10-06T11:52:04.645Z,79585.28
2022-10-06T11:53:09.075Z,81592.32
2022-10-06T11:54:09.207Z,81592.32
2022-10-06T11:55:09.333Z,81592.32
2022-10-06T11:56:09.464Z,81592.32
2022-10-06T11:57:09.592Z,81592.32
2022-10-06T11:58:30.160Z,83763.2
2022-10-06T11:59:42.977Z,81960.96
2022-10-06T12:00:43.101Z,81960.96
2022-10-06T12:01:43.274Z,81960.96
2022-10-06T12:02:43.652Z,81960.96
2022-10-06T12:03:44.176Z,81960.96
2022-10-06T12:04:44.302Z,72990.72
2022-10-06T12:05:59.704Z,55992.32
2022-10-06T12:06:59.846Z,36782.08
2022-10-06T12:07:59.968Z,28590.08
2022-10-06T12:09:00.098Z,21585.92
2022-10-06T12:10:00.224Z,17192.96
2022-10-06T12:11:00.355Z,17192.96
2022-10-06T12:12:00.478Z,38584.32
2022-10-06T12:13:11.300Z,57794.56
2022-10-06T12:17:16.906Z,77578.24
2022-10-06T12:18:20.164Z,80773.12
2022-10-06T12:19:20.289Z,80773.12
2022-10-06T12:20:20.411Z,80773.12
2022-10-06T12:21:20.541Z,80773.12
2022-10-06T12:22:20.711Z,80773.12
2022-10-06T12:23:20.849Z,80773.12
2022-10-06T12:24:20.980Z,80773.12
2022-10-06T12:25:21.112Z,80773.12
2022-10-06T12:26:21.257Z,80773.12
2022-10-06T12:27:23.377Z,82575.36
2022-10-06T12:28:26.754Z,81960.96
2022-10-06T12:29:27.084Z,81960.96
2022-10-06T12:30:27.244Z,81960.96
2022-10-06T12:31:27.519Z,81960.96
2022-10-06T12:32:27.727Z,81960.96
2022-10-06T12:33:27.851Z,81960.96
2022-10-06T12:34:27.980Z,73973.76
2022-10-06T12:35:28.105Z,73973.76
2022-10-06T12:36:28.231Z,64962.56
2022-10-06T12:37:28.355Z,50995.2
2022-10-06T12:38:28.484Z,44769.28
2022-10-06T12:39:28.608Z,44769.28
2022-10-06T12:40:28.765Z,56975.36
2022-10-06T12:41:28.901Z,56975.36
2022-10-06T12:42:29.034Z,56975.36
2022-10-06T12:43:29.170Z,62996.48
2022-10-06T12:44:29.296Z,55787.52
2022-10-06T12:45:29.430Z,49971.2
2022-10-06T12:46:29.587Z,49971.2
2022-10-06T12:47:30.002Z,49971.2
2022-10-06T12:48:30.137Z,44195.84
2022-10-06T12:49:30.264Z,44195.84
2022-10-06T12:50:30.393Z,54190.08
2022-10-06T12:51:30.581Z,60375.04
2022-10-06T12:52:30.842Z,66764.8
2022-10-06T12:53:30.980Z,66764.8
2022-10-06T12:54:31.108Z,66764.8
2022-10-06T12:55:31.238Z,66764.8
2022-10-06T12:56:31.389Z,66764.8
2022-10-06T12:57:31.518Z,50176
2022-10-06T12:58:31.647Z,50176
2022-10-06T12:59:31.771Z,39198.72
2022-10-06T13:00:31.908Z,30597.12
2022-10-06T13:01:32.075Z,27381.76
2022-10-06T13:02:32.414Z,27381.76
2022-10-06T13:03:32.749Z,31784.96
2022-10-06T13:04:32.878Z,27586.56
2022-10-06T13:05:33.000Z,24391.68
2022-10-06T13:06:33.127Z,21790.72
2022-10-06T13:07:33.263Z,27197.44
2022-10-06T13:08:33.389Z,30187.52
2022-10-06T13:09:33.521Z,30187.52
2022-10-06T13:10:33.837Z,30187.52
2022-10-06T13:11:34.236Z,30187.52
2022-10-06T13:12:34.369Z,30187.52
2022-10-06T13:13:34.494Z,23388.16